SondeTracker

Meteorological Radiosondes Database

Operations

Sounding was ended - last measurement: 2022-12-07 13:14:23z

MAP
About Radiosonde

Number: D22035892 (22035892)

Launch Site:

Type: DFM17

AUX: NO

Frequency: 404.210 MHz

Max Speed: 224 km/h at 10349 m

Average Speed: 152.46 km/h

Max Altitude: 24371 m

Average Ascent Speed: 0.00 m/s

Average Descent Speed: 10.62 m/s

Status: UNKNOWN

Status Changes
Launch Site Type AUX Frequency Status Finder Landing Point Description Changes made by
APRS Statistics

Received Frames: 52

First Frame [UTC]: 2022-12-07 12:42:23z

Last Frame [UTC]: 2022-12-07 13:14:23z

Receivers: KE0YJJ

Flight Time: 00:32:00 h

Distance From First Measurement: 80.86 km

Nearest City: Willmar [MN] (US) [32.36 km]

Nearest Hunter: [0.00 km]

Ground Altitude: 377 m

Distance from QTH: 0.00 km

APRS Data
Receiver Number Date/Time [UTC] φ λ Course [°] Speed [km/h] Altitude [m] Description
KE0YJJD220358922022-12-07 13:14:2345.366-94.8315801063980Clb=-8.1m/s t=-20.6C h=-1.0% p=-1.0hPa 404.210 MHz Type=DFM17 ser=22035892 Radiosonde
KE0YJJD220358922022-12-07 13:13:4845.3591-94.8835741265026Clb=-7.7m/s t=-27.8C h=-1.0% p=-1.0hPa 404.210 MHz Type=DFM17 ser=22035892 Radiosonde
KE0YJJD220358922022-12-07 13:12:3545.3506-94.9165731415657Clb=-10.1m/s t=-32.4C h=-1.0% p=-1.0hPa 404.210 MHz Type=DFM17 ser=22035892 Radiosonde
KE0YJJD220358922022-12-07 13:11:1645.3418-94.9657761526457Clb=-8.7m/s t=-39.5C h=-1.0% p=-1.0hPa 404.210 MHz Type=DFM17 ser=22035892 Radiosonde
KE0YJJD220358922022-12-07 13:10:4845.3384-94.9863771546788Clb=-8.6m/s t=-42.3C h=-1.0% p=-1.0hPa 404.210 MHz Type=DFM17 ser=22035892 Radiosonde
KE0YJJD220358922022-12-07 13:10:2045.336-95.003811657040Clb=-8.1m/s t=-43.3C h=-1.0% p=-1.0hPa 404.210 MHz Type=DFM17 ser=22035892 Radiosonde
KE0YJJD220358922022-12-07 13:09:4845.335-95.0172871657228Clb=-7.3m/s t=-42.9C h=-1.0% p=-1.0hPa 404.210 MHz Type=DFM17 ser=22035892 Radiosonde
KE0YJJD220358922022-12-07 13:09:1545.3353-95.0393931637500Clb=-7.2m/s t=-42.0C h=-1.0% p=-1.0hPa 404.210 MHz Type=DFM17 ser=22035892 Radiosonde
KE0YJJD220358922022-12-07 13:08:4145.3361-95.0516971597659Clb=-7.2m/s t=-42.1C h=-1.0% p=-1.0hPa 404.210 MHz Type=DFM17 ser=22035892 Radiosonde
KE0YJJD220358922022-12-07 13:08:0945.3377-95.0693961637888Clb=-7.3m/s t=-42.7C h=-1.0% p=-1.0hPa 404.210 MHz Type=DFM17 ser=22035892 Radiosonde
KE0YJJD220358922022-12-07 13:07:3545.3393-95.088961698134Clb=-7.8m/s t=-43.4C h=-1.0% p=-1.0hPa 404.210 MHz Type=DFM17 ser=22035892 Radiosonde
KE0YJJD220358922022-12-07 13:06:5345.3404-95.1067951708389Clb=-8.7m/s t=-44.6C h=-1.0% p=-1.0hPa 404.210 MHz Type=DFM17 ser=22035892 Radiosonde
KE0YJJD220358922022-12-07 13:06:1645.3421-95.125981678665Clb=-8.9m/s t=-45.7C h=-1.0% p=-1.0hPa 404.210 MHz Type=DFM17 ser=22035892 Radiosonde
KE0YJJD220358922022-12-07 13:05:3945.3438-95.1443951818945Clb=-9.2m/s t=-46.0C h=-1.0% p=-1.0hPa 404.210 MHz Type=DFM17 ser=22035892 Radiosonde
KE0YJJD220358922022-12-07 13:04:5445.3453-95.1649941969214Clb=-9.0m/s t=-46.6C h=-1.0% p=-1.0hPa 404.210 MHz Type=DFM17 ser=22035892 Radiosonde
KE0YJJD220358922022-12-07 13:04:1545.3463-95.1875922009497Clb=-9.0m/s t=-49.1C h=-1.0% p=-1.0hPa 404.210 MHz Type=DFM17 ser=22035892 Radiosonde
KE0YJJD220358922022-12-07 13:03:3845.3463-95.2096882159768Clb=-9.4m/s t=-49.6C h=-1.0% p=-1.0hPa 404.210 MHz Type=DFM17 ser=22035892 Radiosonde
KE0YJJD220358922022-12-07 13:02:5845.3455-95.23418622410056Clb=-9.4m/s t=-50.7C h=-1.0% p=-1.0hPa 404.210 MHz Type=DFM17 ser=22035892 Radiosonde
KE0YJJD220358922022-12-07 13:02:1645.3448-95.25899022410349Clb=-9.9m/s t=-52.9C h=-1.0% p=-1.0hPa 404.210 MHz Type=DFM17 ser=22035892 Radiosonde
KE0YJJD220358922022-12-07 13:01:3445.3459-95.28299621110645Clb=-9.9m/s t=-53.7C h=-1.0% p=-1.0hPa 404.210 MHz Type=DFM17 ser=22035892 Radiosonde
KE0YJJD220358922022-12-07 13:00:4345.3484-95.3059818010951Clb=-10.2m/s t=-54.4C h=-1.0% p=-1.0hPa 404.210 MHz Type=DFM17 ser=22035892 Radiosonde
KE0YJJD220358922022-12-07 12:59:5345.3499-95.32349417011244Clb=-9.6m/s t=-56.2C h=-1.0% p=-1.0hPa 404.210 MHz Type=DFM17 ser=22035892 Radiosonde
KE0YJJD220358922022-12-07 12:59:2245.3501-95.34248817011557Clb=-9.9m/s t=-55.6C h=-1.0% p=-1.0hPa 404.210 MHz Type=DFM17 ser=22035892 Radiosonde
KE0YJJD220358922022-12-07 12:58:5145.3492-95.36258719411883Clb=-11.0m/s t=-56.5C h=-1.0% p=-1.0hPa 404.210 MHz Type=DFM17 ser=22035892 Radiosonde
KE0YJJD220358922022-12-07 12:58:2045.349-95.38398919112226Clb=-11.3m/s t=-55.8C h=-1.0% p=-1.0hPa 404.210 MHz Type=DFM17 ser=22035892 Radiosonde
KE0YJJD220358922022-12-07 12:58:1245.3474-95.48878718714130Clb=-9.4m/s t=-58.3C h=-1.0% p=-1.0hPa 404.210 MHz Type=DFM17 ser=22035892 Radiosonde
KE0YJJD220358922022-12-07 12:57:5845.347-95.50779017214395Clb=-8.9m/s t=-58.7C h=-1.0% p=-1.0hPa 404.210 MHz Type=DFM17 ser=22035892 Radiosonde
KE0YJJD220358922022-12-07 12:57:5645.3472-95.52698917614671Clb=-9.5m/s t=-58.0C h=-1.0% p=-1.0hPa 404.210 MHz Type=DFM17 ser=22035892 Radiosonde
KE0YJJD220358922022-12-07 12:57:5445.347-95.54658817014955Clb=-9.3m/s t=-57.1C h=-1.0% p=-1.0hPa 404.210 MHz Type=DFM17 ser=22035892 Radiosonde
KE0YJJD220358922022-12-07 12:57:5245.3462-95.56428715715242Clb=-9.1m/s t=-58.6C h=-1.0% p=-1.0hPa 404.210 MHz Type=DFM17 ser=22035892 Radiosonde
KE0YJJD220358922022-12-07 12:57:5045.346-95.58178815015543Clb=-9.5m/s t=-59.7C h=-1.0% p=-1.0hPa 404.210 MHz Type=DFM17 ser=22035892 Radiosonde
KE0YJJD220358922022-12-07 12:57:4945.3449-95.59828315915833Clb=-10.1m/s t=-60.2C h=-1.0% p=-1.0hPa 404.210 MHz Type=DFM17 ser=22035892 Radiosonde
KE0YJJD220358922022-12-07 12:57:4645.344-95.6169116316150Clb=-10.5m/s t=-59.7C h=-1.0% p=-1.0hPa 404.210 MHz Type=DFM17 ser=22035892 Radiosonde
KE0YJJD220358922022-12-07 12:57:4445.3451-95.63839414416590Clb=-11.2m/s t=-59.6C h=-1.0% p=-1.0hPa 404.210 MHz Type=DFM17 ser=22035892 Radiosonde
KE0YJJD220358922022-12-07 12:57:3045.3453-95.64939014416841Clb=-11.4m/s t=-58.7C h=-1.0% p=-1.0hPa 404.210 MHz Type=DFM17 ser=22035892 Radiosonde
KE0YJJD220358922022-12-07 12:56:3645.3451-95.66598914317212Clb=-11.7m/s t=-59.9C h=-1.0% p=-1.0hPa 404.210 MHz Type=DFM17 ser=22035892 Radiosonde
KE0YJJD220358922022-12-07 12:55:4145.3457-95.68049313317561Clb=-11.3m/s t=-60.6C h=-1.0% p=-1.0hPa 404.210 MHz Type=DFM17 ser=22035892 Radiosonde
KE0YJJD220358922022-12-07 12:54:4845.3456-95.69388011717917Clb=-11.1m/s t=-61.2C h=-1.0% p=-1.0hPa 404.210 MHz Type=DFM17 ser=22035892 Radiosonde
KE0YJJD220358922022-12-07 12:53:5845.3426-95.70616212018276Clb=-11.8m/s t=-60.9C h=-1.0% p=-1.0hPa 404.210 MHz Type=DFM17 ser=22035892 Radiosonde
KE0YJJD220358922022-12-07 12:53:0545.3394-95.71997113518652Clb=-12.3m/s t=-58.6C h=-1.0% p=-1.0hPa 404.210 MHz Type=DFM17 ser=22035892 Radiosonde
KE0YJJD220358922022-12-07 12:52:0045.3362-95.73418013719063Clb=-12.7m/s t=-59.3C h=-1.0% p=-1.0hPa 404.210 MHz Type=DFM17 ser=22035892 Radiosonde
KE0YJJD220358922022-12-07 12:51:0145.3352-95.74848913019463Clb=-13.8m/s t=-61.1C h=-1.0% p=-1.0hPa 404.210 MHz Type=DFM17 ser=22035892 Radiosonde
KE0YJJD220358922022-12-07 12:50:0745.3356-95.76198810919904Clb=-13.7m/s t=-62.2C h=-1.0% p=-1.0hPa 404.210 MHz Type=DFM17 ser=22035892 Radiosonde
KE0YJJD220358922022-12-07 12:49:0845.3352-95.77358610220348Clb=-14.3m/s t=-63.6C h=-1.0% p=-1.0hPa 404.210 MHz Type=DFM17 ser=22035892 Radiosonde
KE0YJJD220358922022-12-07 12:48:0845.3349-95.78568510620820Clb=-14.9m/s t=-62.2C h=-1.0% p=-1.0hPa 404.210 MHz Type=DFM17 ser=22035892 Radiosonde
KE0YJJD220358922022-12-07 12:47:0545.3347-95.7972969621260Clb=-14.3m/s t=-60.9C h=-1.0% p=-1.0hPa 404.210 MHz Type=DFM17 ser=22035892 Radiosonde
KE0YJJD220358922022-12-07 12:46:0645.3359-95.8099812021725Clb=-15.7m/s t=-59.9C h=-1.0% p=-1.0hPa 404.210 MHz Type=DFM17 ser=22035892 Radiosonde
KE0YJJD220358922022-12-07 12:45:0845.3376-95.822710910622237Clb=-16.4m/s t=-56.4C h=-1.0% p=-1.0hPa 404.210 MHz Type=DFM17 ser=22035892 Radiosonde
KE0YJJD220358922022-12-07 12:44:0545.3397-95.83729010922948Clb=-16.4m/s t=-55.8C h=-1.0% p=-1.0hPa 404.210 MHz Type=DFM17 ser=22035892 Radiosonde
KE0YJJD220358922022-12-07 12:43:2945.3396-95.84428410423246Clb=-16.8m/s t=-55.2C h=-1.0% p=-1.0hPa 404.210 MHz Type=DFM17 ser=22035892 Radiosonde
KE0YJJD220358922022-12-07 12:43:0145.3381-95.8552788723823Clb=-17.9m/s t=-57.4C h=-1.0% p=-1.0hPa 404.210 MHz Type=DFM17 ser=22035892 Radiosonde
KE0YJJD220358922022-12-07 12:42:2345.3379-95.8655889624371Clb=-17.6m/s t=-60.0C h=-1.0% p=-1.0hPa 404.210 MHz Type=DFM17 ser=22035892 Radiosonde